Time,TemperatureF,DewpointF,PressureIn,WindDirection,WindDirectionDegrees,WindSpeedMPH,WindSpeedGustMPH,Humidity,HourlyPrecipIn,Conditions,Clouds,dailyrainin,SoftwareType,DateUTC
2014-03-21 00:02:00,53.4,51.1,30.16,ENE,71,0.0,0.0,92,0.00,,---,0.00,VWS V14.00,2014-03-20 23:02:00,
2014-03-21 00:13:00,53.4,51.1,30.16,ENE,71,0.0,0.0,92,0.00,,---,0.00,VWS V14.00,2014-03-20 23:13:00,
2014-03-21 00:17:00,53.3,51.0,30.16,ENE,71,0.0,0.0,92,0.00,,---,0.00,VWS V14.00,2014-03-20 23:17:00,
2014-03-21 00:23:00,53.1,51.1,30.16,ENE,71,0.0,0.0,93,0.00,,---,0.00,VWS V14.00,2014-03-20 23:23:00,
2014-03-21 00:28:00,53.0,51.0,30.16,ENE,71,0.0,0.0,93,0.00,,---,0.00,VWS V14.00,2014-03-20 23:28:00,
2014-03-21 00:38:00,53.2,51.2,30.16,ENE,71,0.0,0.0,93,0.00,,---,0.00,VWS V14.00,2014-03-20 23:38:00,
2014-03-21 00:42:00,53.3,51.3,30.16,ENE,71,0.0,0.0,93,0.00,,---,0.00,VWS V14.00,2014-03-20 23:42:00,
2014-03-21 00:47:00,53.4,51.4,30.16,ENE,71,0.0,0.0,93,0.00,,---,0.00,VWS V14.00,2014-03-20 23:47:00,
2014-03-21 00:52:00,53.4,51.4,30.16,ENE,71,0.0,0.0,93,0.00,,---,0.00,VWS V14.00,2014-03-20 23:52:00,
2014-03-21 00:57:00,53.4,51.4,30.16,ENE,71,0.0,0.0,93,0.00,,---,0.00,VWS V14.00,2014-03-20 23:57:00,
2014-03-21 01:03:00,53.4,51.4,30.16,ENE,71,0.0,0.0,93,0.00,,---,0.00,VWS V14.00,2014-03-21 00:03:00,
2014-03-21 01:12:00,53.4,51.4,30.16,ENE,71,0.0,0.0,93,0.00,,---,0.00,VWS V14.00,2014-03-21 00:12:00,
2014-03-21 01:17:00,53.5,51.5,30.16,ENE,71,0.0,0.0,93,0.00,,---,0.00,VWS V14.00,2014-03-21 00:17:00,
2014-03-21 01:23:00,53.6,51.3,30.16,ENE,71,0.0,0.0,92,0.00,,---,0.00,VWS V14.00,2014-03-21 00:23:00,
2014-03-21 01:27:00,53.7,51.4,30.15,ENE,71,0.0,0.0,92,0.00,,---,0.00,VWS V14.00,2014-03-21 00:27:00,
2014-03-21 01:33:00,53.8,51.5,30.15,ENE,71,0.0,0.0,92,0.00,,---,0.00,VWS V14.00,2014-03-21 00:33:00,
2014-03-21 01:42:00,53.8,51.5,30.15,ENE,71,0.0,0.0,92,0.00,,---,0.00,VWS V14.00,2014-03-21 00:42:00,
2014-03-21 01:47:00,53.6,51.3,30.15,ENE,71,0.0,0.0,92,0.00,,---,0.00,VWS V14.00,2014-03-21 00:47:00,
2014-03-21 01:52:00,53.4,51.1,30.15,ENE,71,0.0,0.0,92,0.00,,---,0.00,VWS V14.00,2014-03-21 00:52:00,
2014-03-21 01:58:00,53.3,51.0,30.15,ENE,71,0.0,0.0,92,0.00,,---,0.00,VWS V14.00,2014-03-21 00:58:00,
2014-03-21 02:02:00,53.2,50.9,30.14,ENE,71,0.0,0.0,92,0.00,,---,0.00,VWS V14.00,2014-03-21 01:02:00,
2014-03-21 02:07:00,53.1,50.8,30.14,ENE,71,0.0,0.0,92,0.00,,---,0.00,VWS V14.00,2014-03-21 01:07:00,
2014-03-21 02:13:00,52.9,50.6,30.14,ENE,71,0.0,0.0,92,0.00,,---,0.00,VWS V14.00,2014-03-21 01:13:00,
2014-03-21 02:17:00,52.8,50.5,30.14,ENE,71,0.0,0.0,92,0.00,,---,0.00,VWS V14.00,2014-03-21 01:17:00,
2014-03-21 02:23:00,52.8,50.5,30.14,ENE,71,0.0,0.0,92,0.00,,---,0.00,VWS V14.00,2014-03-21 01:23:00,
2014-03-21 02:27:00,52.9,50.6,30.14,ENE,71,0.0,0.0,92,0.00,,---,0.00,VWS V14.00,2014-03-21 01:27:00,
2014-03-21 02:32:00,52.9,50.6,30.14,ENE,71,0.0,0.0,92,0.00,,---,0.00,VWS V14.00,2014-03-21 01:32:00,
2014-03-21 02:38:00,52.9,50.6,30.14,ENE,71,0.0,0.0,92,0.00,,---,0.00,VWS V14.00,2014-03-21 01:38:00,
2014-03-21 02:43:00,52.9,50.9,30.14,ENE,71,0.0,0.0,93,0.00,,---,0.00,VWS V14.00,2014-03-21 01:43:00,
2014-03-21 02:47:00,52.9,50.9,30.14,ENE,71,0.0,0.0,93,0.00,,---,0.00,VWS V14.00,2014-03-21 01:47:00,
2014-03-21 02:53:00,52.9,50.9,30.14,ENE,71,0.0,0.0,93,0.00,,---,0.00,VWS V14.00,2014-03-21 01:53:00,
2014-03-21 02:58:00,52.9,50.9,30.13,ENE,71,0.0,0.0,93,0.00,,---,0.00,VWS V14.00,2014-03-21 01:58:00,
2014-03-21 03:03:00,52.8,50.8,30.13,ENE,71,0.0,0.0,93,0.00,,---,0.00,VWS V14.00,2014-03-21 02:03:00,
2014-03-21 03:08:00,52.6,50.6,30.13,ENE,71,0.0,0.0,93,0.00,,---,0.00,VWS V14.00,2014-03-21 02:08:00,
2014-03-21 03:13:00,52.6,50.6,30.13,ENE,71,0.0,0.0,93,0.00,,---,0.00,VWS V14.00,2014-03-21 02:13:00,
2014-03-21 03:18:00,52.6,50.6,30.13,ENE,71,0.0,0.0,93,0.00,,---,0.00,VWS V14.00,2014-03-21 02:18:00,
2014-03-21 03:23:00,52.6,50.6,30.13,ENE,71,0.0,0.0,93,0.00,,---,0.00,VWS V14.00,2014-03-21 02:23:00,
2014-03-21 03:27:00,52.7,50.7,30.13,ENE,71,0.0,0.0,93,0.00,,---,0.00,VWS V14.00,2014-03-21 02:27:00,
2014-03-21 03:33:00,52.7,50.7,30.13,ENE,71,0.0,0.0,93,0.00,,---,0.00,VWS V14.00,2014-03-21 02:33:00,
2014-03-21 03:37:00,52.7,50.7,30.13,ENE,71,0.0,0.0,93,0.00,,---,0.00,VWS V14.00,2014-03-21 02:37:00,
2014-03-21 03:43:00,52.8,50.8,30.12,ENE,71,0.0,0.0,93,0.00,,---,0.00,VWS V14.00,2014-03-21 02:43:00,
2014-03-21 03:48:00,52.8,50.8,30.12,ENE,71,0.0,0.0,93,0.00,,---,0.00,VWS V14.00,2014-03-21 02:48:00,
2014-03-21 03:53:00,52.8,50.8,30.12,ENE,71,0.0,0.0,93,0.00,,---,0.00,VWS V14.00,2014-03-21 02:53:00,
2014-03-21 03:57:00,52.7,50.7,30.12,ENE,71,0.0,0.0,93,0.00,,---,0.00,VWS V14.00,2014-03-21 02:57:00,
2014-03-21 04:02:00,52.6,50.6,30.12,ENE,71,0.0,0.0,93,0.00,,---,0.00,VWS V14.00,2014-03-21 03:02:00,
2014-03-21 04:08:00,52.6,50.6,30.12,ENE,71,0.0,0.0,93,0.00,,---,0.00,VWS V14.00,2014-03-21 03:08:00,
2014-03-21 04:13:00,52.6,50.6,30.12,ENE,71,0.0,0.0,93,0.00,,---,0.00,VWS V14.00,2014-03-21 03:13:00,
2014-03-21 04:18:00,52.6,50.6,30.12,ENE,71,0.0,0.0,93,0.00,,---,0.00,VWS V14.00,2014-03-21 03:18:00,
2014-03-21 04:23:00,52.6,50.6,30.12,ENE,71,0.0,0.0,93,0.00,,---,0.00,VWS V14.00,2014-03-21 03:23:00,
2014-03-21 04:28:00,52.5,50.5,30.12,ENE,71,0.0,0.0,93,0.00,,---,0.00,VWS V14.00,2014-03-21 03:28:00,
2014-03-21 04:33:00,52.4,50.4,30.12,ENE,71,0.0,0.0,93,0.00,,---,0.00,VWS V14.00,2014-03-21 03:33:00,
2014-03-21 04:37:00,52.4,50.7,30.12,ENE,71,0.0,0.0,94,0.00,,---,0.00,VWS V14.00,2014-03-21 03:37:00,
2014-03-21 04:43:00,52.3,50.6,30.12,ENE,71,0.0,0.0,94,0.00,,---,0.00,VWS V14.00,2014-03-21 03:43:00,
2014-03-21 04:47:00,52.3,50.6,30.12,ENE,71,0.0,0.0,94,0.00,,---,0.00,VWS V14.00,2014-03-21 03:47:00,
2014-03-21 04:52:00,52.3,50.6,30.12,ENE,71,0.0,0.0,94,0.00,,---,0.00,VWS V14.00,2014-03-21 03:52:00,
2014-03-21 04:58:00,52.4,50.7,30.12,ENE,71,0.0,0.0,94,0.00,,---,0.00,VWS V14.00,2014-03-21 03:58:00,
2014-03-21 05:03:00,52.5,50.8,30.12,ENE,71,0.0,0.0,94,0.00,,---,0.00,VWS V14.00,2014-03-21 04:03:00,
2014-03-21 05:07:00,52.6,50.9,30.12,ENE,71,0.0,0.0,94,0.00,,---,0.00,VWS V14.00,2014-03-21 04:07:00,
2014-03-21 05:12:00,52.7,51.0,30.12,ENE,71,0.0,0.0,94,0.00,,---,0.00,VWS V14.00,2014-03-21 04:12:00,
2014-03-21 05:18:00,52.8,51.1,30.12,ENE,71,0.0,0.0,94,0.00,,---,0.00,VWS V14.00,2014-03-21 04:18:00,
2014-03-21 05:22:00,52.8,51.1,30.12,ENE,71,0.0,0.0,94,0.00,,---,0.00,VWS V14.00,2014-03-21 04:22:00,
2014-03-21 05:28:00,52.7,51.0,30.12,ENE,71,0.0,0.0,94,0.00,,---,0.00,VWS V14.00,2014-03-21 04:28:00,
2014-03-21 05:32:00,52.6,50.6,30.12,ENE,71,0.0,0.0,93,0.00,,---,0.00,VWS V14.00,2014-03-21 04:32:00,
2014-03-21 05:38:00,52.6,50.6,30.12,ENE,71,0.0,0.0,93,0.00,,---,0.00,VWS V14.00,2014-03-21 04:38:00,
2014-03-21 05:43:00,52.6,50.6,30.12,ENE,71,0.0,0.0,93,0.00,,---,0.00,VWS V14.00,2014-03-21 04:43:00,
2014-03-21 05:48:00,52.5,50.8,30.12,ENE,71,0.0,0.0,94,0.00,,---,0.00,VWS V14.00,2014-03-21 04:48:00,
2014-03-21 05:52:00,52.5,50.5,30.12,ENE,71,0.0,0.0,93,0.00,,---,0.00,VWS V14.00,2014-03-21 04:52:00,
2014-03-21 05:58:00,52.4,50.4,30.12,ENE,71,0.0,0.0,93,0.00,,---,0.00,VWS V14.00,2014-03-21 04:58:00,
2014-03-21 06:02:00,52.4,50.4,30.12,ENE,71,0.0,0.0,93,0.00,,---,0.00,VWS V14.00,2014-03-21 05:02:00,
2014-03-21 06:07:00,52.3,50.6,30.12,ENE,71,0.0,0.0,94,0.00,,---,0.00,VWS V14.00,2014-03-21 05:07:00,
2014-03-21 06:13:00,52.2,50.5,30.12,ENE,71,0.0,0.0,94,0.00,,---,0.00,VWS V14.00,2014-03-21 05:13:00,
2014-03-21 06:17:00,52.2,50.5,30.12,ENE,71,0.0,0.0,94,0.00,,---,0.00,VWS V14.00,2014-03-21 05:17:00,
2014-03-21 06:22:00,52.1,50.4,30.13,ENE,71,0.0,0.0,94,0.00,,---,0.00,VWS V14.00,2014-03-21 05:22:00,
2014-03-21 06:27:00,51.9,49.9,30.13,ENE,71,0.0,0.0,93,0.00,,---,0.00,VWS V14.00,2014-03-21 05:27:00,
2014-03-21 06:33:00,51.7,50.0,30.13,ENE,71,0.0,0.0,94,0.00,,---,0.00,VWS V14.00,2014-03-21 05:33:00,
2014-03-21 06:38:00,51.6,49.9,30.13,ENE,71,0.0,0.0,94,0.00,,---,0.00,VWS V14.00,2014-03-21 05:38:00,
2014-03-21 06:42:00,51.5,49.8,30.13,ENE,71,0.0,0.0,94,0.00,,---,0.00,VWS V14.00,2014-03-21 05:42:00,
2014-03-21 06:48:00,51.5,49.8,30.13,ENE,71,0.0,0.0,94,0.00,,---,0.00,VWS V14.00,2014-03-21 05:48:00,
2014-03-21 06:52:00,51.3,49.6,30.13,ENE,71,0.0,0.0,94,0.00,,---,0.00,VWS V14.00,2014-03-21 05:52:00,
2014-03-21 06:58:00,51.1,49.4,30.13,ENE,71,0.0,0.0,94,0.00,,---,0.00,VWS V14.00,2014-03-21 05:58:00,
2014-03-21 07:03:00,50.7,49.0,30.13,ENE,71,0.0,0.0,94,0.00,,---,0.00,VWS V14.00,2014-03-21 06:03:00,
2014-03-21 07:07:00,50.4,48.7,30.13,ENE,71,0.0,0.0,94,0.00,,---,0.00,VWS V14.00,2014-03-21 06:07:00,
2014-03-21 07:13:00,50.1,48.4,30.14,ENE,71,0.0,0.0,94,0.00,,---,0.00,VWS V14.00,2014-03-21 06:13:00,
2014-03-21 07:18:00,49.9,48.2,30.14,ENE,71,0.0,0.0,94,0.00,,---,0.00,VWS V14.00,2014-03-21 06:18:00,
2014-03-21 07:23:00,49.5,47.8,30.14,ENE,71,0.0,0.0,94,0.00,,---,0.00,VWS V14.00,2014-03-21 06:23:00,
2014-03-21 07:27:00,49.2,47.5,30.14,ENE,71,0.0,0.0,94,0.00,,---,0.00,VWS V14.00,2014-03-21 06:27:00,
2014-03-21 07:32:00,49.2,47.8,30.14,ENE,71,0.0,0.0,95,0.00,,---,0.00,VWS V14.00,2014-03-21 06:32:00,
2014-03-21 07:37:00,49.3,47.9,30.14,ENE,71,0.0,0.0,95,0.00,,---,0.00,VWS V14.00,2014-03-21 06:37:00,
2014-03-21 07:42:00,49.5,48.1,30.14,ENE,71,0.0,0.0,95,0.00,,---,0.00,VWS V14.00,2014-03-21 06:42:00,
2014-03-21 07:48:00,49.7,48.3,30.14,ENE,71,0.0,0.0,95,0.00,,---,0.00,VWS V14.00,2014-03-21 06:48:00,
2014-03-21 07:52:00,50.0,48.6,30.14,ENE,71,0.0,0.0,95,0.00,,---,0.00,VWS V14.00,2014-03-21 06:52:00,
2014-03-21 07:57:00,50.2,49.1,30.14,ENE,71,0.0,0.0,96,0.00,,---,0.00,VWS V14.00,2014-03-21 06:57:00,
2014-03-21 08:02:00,50.4,49.3,30.14,ENE,71,0.0,0.0,96,0.00,,---,0.00,VWS V14.00,2014-03-21 07:02:00,
2014-03-21 08:08:00,50.3,49.2,30.14,ENE,71,0.0,0.0,96,0.00,,---,0.00,VWS V14.00,2014-03-21 07:08:00,
2014-03-21 08:13:00,50.7,49.6,30.14,ENE,71,0.0,0.0,96,0.00,,---,0.00,VWS V14.00,2014-03-21 07:13:00,
2014-03-21 08:17:00,51.2,50.1,30.14,ESE,117,0.0,0.0,96,0.00,,---,0.00,VWS V14.00,2014-03-21 07:17:00,
2014-03-21 08:22:00,51.8,50.7,30.14,SE,144,1.0,4.0,96,0.00,,---,0.00,VWS V14.00,2014-03-21 07:22:00,
2014-03-21 08:27:00,52.5,51.4,30.14,South,176,3.0,5.0,96,0.00,,---,0.00,VWS V14.00,2014-03-21 07:27:00,
2014-03-21 08:33:00,53.1,52.0,30.15,SSW,211,3.0,6.0,96,0.00,,---,0.00,VWS V14.00,2014-03-21 07:33:00,
2014-03-21 08:37:00,53.4,52.3,30.14,SSW,196,6.0,8.0,96,0.00,,---,0.00,VWS V14.00,2014-03-21 07:37:00,
2014-03-21 08:43:00,53.7,52.3,30.15,SSW,201,5.0,8.0,95,0.00,,---,0.00,VWS V14.00,2014-03-21 07:43:00,
2014-03-21 08:48:00,54.1,52.7,30.14,South,170,3.0,7.0,95,0.00,,---,0.00,VWS V14.00,2014-03-21 07:48:00,
2014-03-21 08:53:00,54.3,52.6,30.14,SSW,202,2.0,8.0,94,0.00,,---,0.00,VWS V14.00,2014-03-21 07:53:00,
2014-03-21 08:58:00,54.6,52.9,30.14,SW,221,6.0,9.0,94,0.00,,---,0.00,VWS V14.00,2014-03-21 07:58:00,
2014-03-21 09:03:00,54.9,52.6,30.14,SSW,202,4.0,9.0,92,0.00,,---,0.00,VWS V14.00,2014-03-21 08:03:00,
2014-03-21 09:08:00,55.3,52.4,30.14,SSW,198,6.0,13.0,90,0.00,,---,0.00,VWS V14.00,2014-03-21 08:08:00,
2014-03-21 09:13:00,55.7,51.6,30.14,South,184,8.0,14.0,86,0.00,,---,0.00,VWS V14.00,2014-03-21 08:13:00,
2014-03-21 09:18:00,56.2,51.4,30.14,SSW,200,14.0,14.0,84,0.00,,---,0.00,VWS V14.00,2014-03-21 08:18:00,
2014-03-21 09:22:00,56.5,51.1,30.14,SW,227,8.0,17.0,82,0.00,,---,0.00,VWS V14.00,2014-03-21 08:22:00,
2014-03-21 09:27:00,56.8,51.0,30.14,SSW,210,10.0,15.0,81,0.00,,---,0.00,VWS V14.00,2014-03-21 08:27:00,
2014-03-21 09:32:00,57.0,50.6,30.14,SW,229,13.0,17.0,79,0.00,,---,0.00,VWS V14.00,2014-03-21 08:32:00,
2014-03-21 09:38:00,57.4,51.3,30.14,SSW,210,3.0,14.0,80,0.00,,---,0.00,VWS V14.00,2014-03-21 08:38:00,
2014-03-21 09:43:00,57.3,51.2,30.14,South,187,6.0,10.0,80,0.00,,---,0.00,VWS V14.00,2014-03-21 08:43:00,
2014-03-21 09:47:00,57.4,51.3,30.14,SW,222,8.0,12.0,80,0.00,,---,0.00,VWS V14.00,2014-03-21 08:47:00,
2014-03-21 09:52:00,57.5,51.4,30.14,South,173,8.0,9.0,80,0.00,,---,0.00,VWS V14.00,2014-03-21 08:52:00,
2014-03-21 09:58:00,57.8,51.3,30.14,SSW,204,7.0,11.0,79,0.00,,---,0.00,VWS V14.00,2014-03-21 08:58:00,
2014-03-21 10:03:00,58.3,52.2,30.14,SSW,202,5.0,10.0,80,0.00,,---,0.00,VWS V14.00,2014-03-21 09:03:00,
2014-03-21 10:07:00,58.4,52.3,30.14,SSW,202,6.0,9.0,80,0.00,,---,0.00,VWS V14.00,2014-03-21 09:07:00,
2014-03-21 10:12:00,58.2,52.1,30.14,SSW,193,5.0,12.0,80,0.00,,---,0.00,VWS V14.00,2014-03-21 09:12:00,
2014-03-21 10:17:00,58.1,52.0,30.14,South,171,12.0,13.0,80,0.00,,---,0.00,VWS V14.00,2014-03-21 09:17:00,
2014-03-21 10:22:00,58.2,52.1,30.14,SSW,194,9.0,14.0,80,0.00,,---,0.00,VWS V14.00,2014-03-21 09:22:00,
2014-03-21 10:28:00,58.5,52.0,30.14,South,188,8.0,12.0,79,0.00,,---,0.00,VWS V14.00,2014-03-21 09:28:00,
2014-03-21 10:32:00,58.6,52.1,30.14,SW,217,8.0,14.0,79,0.00,,---,0.00,VWS V14.00,2014-03-21 09:32:00,
2014-03-21 10:38:00,58.8,52.3,30.13,SW,215,6.0,13.0,79,0.00,,---,0.00,VWS V14.00,2014-03-21 09:38:00,
2014-03-21 10:43:00,59.1,52.6,30.13,SSW,200,7.0,14.0,79,0.00,,---,0.00,VWS V14.00,2014-03-21 09:43:00,
2014-03-21 10:48:00,58.9,52.8,30.13,SW,219,11.0,17.0,80,0.00,,---,0.00,VWS V14.00,2014-03-21 09:48:00,
2014-03-21 10:52:00,58.6,52.8,30.13,South,186,9.0,15.0,81,0.00,,---,0.00,VWS V14.00,2014-03-21 09:52:00,
2014-03-21 10:57:00,59.0,53.8,30.13,South,179,7.0,15.0,83,0.00,,---,0.00,VWS V14.00,2014-03-21 09:57:00,
2014-03-21 11:03:00,59.0,53.2,30.13,SSW,207,9.0,18.0,81,0.00,,---,0.00,VWS V14.00,2014-03-21 10:03:00,
2014-03-21 11:08:00,58.6,52.8,30.13,SSW,192,12.0,17.0,81,0.00,,---,0.00,VWS V14.00,2014-03-21 10:08:00,
2014-03-21 11:13:00,58.9,53.1,30.13,SW,217,8.0,15.0,81,0.00,,---,0.00,VWS V14.00,2014-03-21 10:13:00,
2014-03-21 11:17:00,59.0,52.8,30.13,SSW,195,11.0,20.0,80,0.00,,---,0.00,VWS V14.00,2014-03-21 10:17:00,
2014-03-21 11:22:00,58.8,53.0,30.13,SSW,193,9.0,18.0,81,0.00,,---,0.00,VWS V14.00,2014-03-21 10:22:00,
2014-03-21 11:28:00,59.4,53.6,30.13,South,175,8.0,18.0,81,0.00,,---,0.00,VWS V14.00,2014-03-21 10:28:00,
2014-03-21 11:38:00,58.9,53.1,30.13,SSW,195,11.0,18.0,81,0.00,,---,0.00,VWS V14.00,2014-03-21 10:38:00,
2014-03-21 11:43:00,59.4,54.2,30.13,SSW,213,7.0,17.0,83,0.00,,---,0.00,VWS V14.00,2014-03-21 10:43:00,
2014-03-21 11:47:00,59.2,53.7,30.13,SSW,207,11.0,18.0,82,0.00,,---,0.00,VWS V14.00,2014-03-21 10:47:00,
2014-03-21 11:53:00,59.7,54.2,30.12,SSW,192,10.0,17.0,82,0.00,,---,0.00,VWS V14.00,2014-03-21 10:53:00,
2014-03-21 11:57:00,59.6,54.1,30.12,SSW,199,10.0,19.0,82,0.00,,---,0.00,VWS V14.00,2014-03-21 10:57:00,
2014-03-21 12:02:00,59.6,54.4,30.12,SSW,208,5.0,17.0,83,0.00,,---,0.00,VWS V14.00,2014-03-21 11:02:00,
2014-03-21 12:07:00,59.8,54.6,30.12,SSW,205,7.0,18.0,83,0.00,,---,0.00,VWS V14.00,2014-03-21 11:07:00,
2014-03-21 12:13:00,59.4,54.2,30.12,SSW,211,12.0,19.0,83,0.00,,---,0.00,VWS V14.00,2014-03-21 11:13:00,
2014-03-21 12:18:00,59.8,55.0,30.12,SSW,192,12.0,20.0,84,0.00,,---,0.00,VWS V14.00,2014-03-21 11:18:00,
2014-03-21 12:22:00,59.5,54.3,30.12,SSW,212,7.0,21.0,83,0.00,,---,0.00,VWS V14.00,2014-03-21 11:22:00,
2014-03-21 12:27:00,59.6,54.4,30.12,South,183,12.0,22.0,83,0.00,,---,0.00,VWS V14.00,2014-03-21 11:27:00,
2014-03-21 12:33:00,59.4,54.6,30.12,South,184,13.0,19.0,84,0.00,,---,0.00,VWS V14.00,2014-03-21 11:33:00,
2014-03-21 12:37:00,59.6,54.4,30.12,SSW,201,12.0,19.0,83,0.00,,---,0.00,VWS V14.00,2014-03-21 11:37:00,
2014-03-21 12:43:00,59.5,54.3,30.12,South,180,16.0,21.0,83,0.00,,---,0.00,VWS V14.00,2014-03-21 11:43:00,
2014-03-21 12:47:00,59.4,54.6,30.11,SSW,200,17.0,22.0,84,0.00,,---,0.00,VWS V14.00,2014-03-21 11:47:00,
2014-03-21 12:53:00,59.2,54.4,30.11,SSE,164,8.0,18.0,84,0.00,,---,0.00,VWS V14.00,2014-03-21 11:53:00,
2014-03-21 12:58:00,59.7,54.9,30.11,SSW,193,13.0,16.0,84,0.00,,---,0.00,VWS V14.00,2014-03-21 11:58:00,
2014-03-21 13:02:00,59.6,54.8,30.11,SSW,210,10.0,17.0,84,0.00,,---,0.00,VWS V14.00,2014-03-21 12:02:00,
2014-03-21 13:07:00,59.2,54.0,30.11,SSW,208,10.0,20.0,83,0.00,,---,0.00,VWS V14.00,2014-03-21 12:07:00,
2014-03-21 13:13:00,59.4,54.9,30.11,South,180,15.0,22.0,85,0.00,,---,0.00,VWS V14.00,2014-03-21 12:13:00,
2014-03-21 13:18:00,59.0,54.5,30.11,SSE,163,9.0,18.0,85,0.00,,---,0.00,VWS V14.00,2014-03-21 12:18:00,
2014-03-21 13:23:00,59.6,55.4,30.10,SW,221,11.0,20.0,86,0.00,,---,0.00,VWS V14.00,2014-03-21 12:23:00,
2014-03-21 13:27:00,59.5,55.0,30.10,SW,217,13.0,20.0,85,0.00,,---,0.00,VWS V14.00,2014-03-21 12:27:00,
2014-03-21 13:32:00,59.5,55.0,30.10,SSE,147,12.0,17.0,85,0.00,,---,0.00,VWS V14.00,2014-03-21 12:32:00,
2014-03-21 13:38:00,59.2,55.0,30.10,SSW,205,8.0,20.0,86,0.00,,---,0.00,VWS V14.00,2014-03-21 12:38:00,
2014-03-21 13:43:00,59.4,54.9,30.09,South,187,14.0,19.0,85,0.00,,---,0.00,VWS V14.00,2014-03-21 12:43:00,
2014-03-21 13:47:00,59.1,54.6,30.09,South,187,10.0,22.0,85,0.00,,---,0.00,VWS V14.00,2014-03-21 12:47:00,
2014-03-21 13:53:00,59.4,54.9,30.09,SSW,205,11.0,17.0,85,0.00,,---,0.00,VWS V14.00,2014-03-21 12:53:00,
2014-03-21 13:58:00,59.4,55.2,30.09,SSW,202,9.0,20.0,86,0.00,,---,0.00,VWS V14.00,2014-03-21 12:58:00,
2014-03-21 14:03:00,59.3,54.5,30.09,SSW,209,13.0,21.0,84,0.00,,---,0.00,VWS V14.00,2014-03-21 13:03:00,
2014-03-21 14:08:00,59.4,54.9,30.09,SSW,197,14.0,20.0,85,0.00,,---,0.00,VWS V14.00,2014-03-21 13:08:00,
2014-03-21 14:13:00,59.4,54.9,30.09,SSW,207,16.0,18.0,85,0.00,,---,0.00,VWS V14.00,2014-03-21 13:13:00,
2014-03-21 14:18:00,59.1,54.6,30.09,South,184,11.0,24.0,85,0.00,,---,0.00,VWS V14.00,2014-03-21 13:18:00,
2014-03-21 14:22:00,59.5,55.0,30.09,SSW,194,10.0,22.0,85,0.00,,---,0.00,VWS V14.00,2014-03-21 13:22:00,
2014-03-21 14:27:00,59.6,54.8,30.08,South,169,12.0,23.0,84,0.00,,---,0.00,VWS V14.00,2014-03-21 13:27:00,
2014-03-21 14:33:00,59.1,54.6,30.08,South,190,22.0,25.0,85,0.00,,---,0.00,VWS V14.00,2014-03-21 13:33:00,
2014-03-21 14:37:00,58.5,54.0,30.08,SSW,207,13.0,22.0,85,0.00,,---,0.00,VWS V14.00,2014-03-21 13:37:00,
2014-03-21 14:42:00,59.3,54.8,30.08,South,190,11.0,21.0,85,0.00,,---,0.00,VWS V14.00,2014-03-21 13:42:00,
2014-03-21 14:48:00,59.0,54.8,30.08,South,186,14.0,22.0,86,0.00,,---,0.00,VWS V14.00,2014-03-21 13:48:00,
2014-03-21 14:53:00,59.2,54.7,30.07,SSW,210,10.0,21.0,85,0.00,,---,0.00,VWS V14.00,2014-03-21 13:53:00,
2014-03-21 14:58:00,59.2,54.7,30.08,South,186,18.0,25.0,85,0.00,,---,0.00,VWS V14.00,2014-03-21 13:58:00,
2014-03-21 15:03:00,58.8,54.6,30.07,SSW,210,18.0,21.0,86,0.00,,---,0.00,VWS V14.00,2014-03-21 14:03:00,
2014-03-21 15:07:00,58.4,54.2,30.07,SSW,202,17.0,24.0,86,0.00,,---,0.00,VWS V14.00,2014-03-21 14:07:00,
2014-03-21 15:13:00,58.9,54.7,30.07,SSW,194,11.0,21.0,86,0.00,,---,0.00,VWS V14.00,2014-03-21 14:13:00,
2014-03-21 15:17:00,59.0,54.5,30.07,SSW,202,10.0,20.0,85,0.00,,---,0.00,VWS V14.00,2014-03-21 14:17:00,
2014-03-21 15:23:00,58.7,54.5,30.07,South,191,16.0,23.0,86,0.00,,---,0.00,VWS V14.00,2014-03-21 14:23:00,
2014-03-21 15:28:00,58.4,53.9,30.07,South,184,9.0,25.0,85,0.00,,---,0.00,VWS V14.00,2014-03-21 14:28:00,
2014-03-21 15:32:00,58.5,54.3,30.07,SSW,200,14.0,22.0,86,0.00,,---,0.00,VWS V14.00,2014-03-21 14:32:00,
2014-03-21 15:37:00,58.8,54.6,30.07,South,180,12.0,20.0,86,0.00,,---,0.00,VWS V14.00,2014-03-21 14:37:00,
2014-03-21 15:42:00,58.7,54.5,30.07,South,186,16.0,17.0,86,0.00,,---,0.00,VWS V14.00,2014-03-21 14:42:00,
2014-03-21 15:47:00,58.5,54.3,30.06,SSW,196,11.0,24.0,86,0.00,,---,0.00,VWS V14.00,2014-03-21 14:47:00,
2014-03-21 15:52:00,58.3,54.5,30.06,SSW,210,13.0,22.0,87,0.00,,---,0.00,VWS V14.00,2014-03-21 14:52:00,
2014-03-21 15:57:00,58.2,54.4,30.06,SW,217,12.0,21.0,87,0.00,,---,0.00,VWS V14.00,2014-03-21 14:57:00,
2014-03-21 16:03:00,58.1,54.3,30.06,SSW,208,15.0,22.0,87,0.00,,---,0.00,VWS V14.00,2014-03-21 15:03:00,
2014-03-21 16:07:00,58.6,54.8,30.06,SSW,206,18.0,21.0,87,0.00,,---,0.00,VWS V14.00,2014-03-21 15:07:00,
2014-03-21 16:12:00,58.2,54.4,30.06,SSW,210,8.0,25.0,87,0.00,,---,0.00,VWS V14.00,2014-03-21 15:12:00,
2014-03-21 16:18:00,58.4,54.5,30.06,SSW,207,14.0,19.0,87,0.00,,---,0.00,VWS V14.00,2014-03-21 15:18:00,
2014-03-21 16:23:00,58.6,54.4,30.05,SSW,197,9.0,18.0,86,0.00,,---,0.00,VWS V14.00,2014-03-21 15:23:00,
2014-03-21 16:28:00,58.5,54.7,30.05,South,191,14.0,18.0,87,0.00,,---,0.00,VWS V14.00,2014-03-21 15:28:00,
2014-03-21 16:33:00,58.5,54.3,30.05,South,171,7.0,20.0,86,0.00,,---,0.00,VWS V14.00,2014-03-21 15:33:00,
2014-03-21 16:38:00,58.2,54.4,30.05,SSE,157,10.0,21.0,87,0.00,,---,0.00,VWS V14.00,2014-03-21 15:38:00,
2014-03-21 16:43:00,58.2,54.4,30.05,SSW,202,8.0,23.0,87,0.00,,---,0.00,VWS V14.00,2014-03-21 15:43:00,
2014-03-21 16:47:00,58.3,54.5,30.05,SSW,210,14.0,21.0,87,0.00,,---,0.00,VWS V14.00,2014-03-21 15:47:00,
2014-03-21 16:53:00,58.0,54.5,30.05,SSW,211,6.0,20.0,88,0.00,,---,0.00,VWS V14.00,2014-03-21 15:53:00,
2014-03-21 16:58:00,57.8,54.3,30.04,SW,228,9.0,21.0,88,0.00,,---,0.00,VWS V14.00,2014-03-21 15:58:00,
2014-03-21 17:02:00,57.5,53.7,30.04,SSW,196,12.0,23.0,87,0.00,,---,0.00,VWS V14.00,2014-03-21 16:02:00,
2014-03-21 17:08:00,57.3,53.8,30.04,SSW,201,8.0,21.0,88,0.00,,---,0.00,VWS V14.00,2014-03-21 16:08:00,
2014-03-21 17:13:00,57.2,54.0,30.04,South,184,13.0,22.0,89,0.00,,---,0.00,VWS V14.00,2014-03-21 16:13:00,
2014-03-21 17:17:00,57.2,54.0,30.04,South,189,10.0,20.0,89,0.00,,---,0.00,VWS V14.00,2014-03-21 16:17:00,
2014-03-21 17:23:00,57.4,54.2,30.05,South,178,10.0,19.0,89,0.00,,---,0.00,VWS V14.00,2014-03-21 16:23:00,
2014-03-21 17:28:00,57.5,54.3,30.05,South,173,14.0,19.0,89,0.00,,---,0.00,VWS V14.00,2014-03-21 16:28:00,
2014-03-21 17:32:00,57.5,54.3,30.05,South,175,9.0,19.0,89,0.00,,---,0.00,VWS V14.00,2014-03-21 16:32:00,
2014-03-21 17:37:00,57.5,54.3,30.05,South,175,15.0,18.0,89,0.00,,---,0.00,VWS V14.00,2014-03-21 16:37:00,
2014-03-21 17:43:00,57.4,53.9,30.05,SW,218,9.0,16.0,88,0.00,,---,0.00,VWS V14.00,2014-03-21 16:43:00,
2014-03-21 17:47:00,57.5,54.3,30.04,South,188,15.0,17.0,89,0.00,,---,0.00,VWS V14.00,2014-03-21 16:47:00,
2014-03-21 17:53:00,57.3,53.8,30.04,SW,217,12.0,21.0,88,0.00,,---,0.00,VWS V14.00,2014-03-21 16:53:00,
2014-03-21 17:58:00,57.2,53.7,30.04,South,171,16.0,19.0,88,0.00,,---,0.00,VWS V14.00,2014-03-21 16:58:00,
2014-03-21 18:03:00,57.1,53.9,30.04,WSW,241,11.0,18.0,89,0.00,,---,0.00,VWS V14.00,2014-03-21 17:03:00,
2014-03-21 18:07:00,57.1,53.9,30.04,SSW,207,7.0,18.0,89,0.00,,---,0.00,VWS V14.00,2014-03-21 17:07:00,
2014-03-21 18:13:00,56.9,53.7,30.04,SSW,200,7.0,19.0,89,0.00,,---,0.00,VWS V14.00,2014-03-21 17:13:00,
2014-03-21 18:18:00,56.7,53.5,30.04,SSW,206,9.0,18.0,89,0.00,,---,0.00,VWS V14.00,2014-03-21 17:18:00,
2014-03-21 18:22:00,56.6,53.7,30.05,SSW,198,10.0,17.0,90,0.00,,---,0.00,VWS V14.00,2014-03-21 17:22:00,
2014-03-21 18:28:00,56.5,53.6,30.04,SSW,207,7.0,15.0,90,0.00,,---,0.00,VWS V14.00,2014-03-21 17:28:00,
2014-03-21 18:32:00,56.4,53.5,30.05,SSW,192,10.0,16.0,90,0.00,,---,0.00,VWS V14.00,2014-03-21 17:32:00,
2014-03-21 18:37:00,56.2,53.3,30.04,South,174,12.0,15.0,90,0.00,,---,0.00,VWS V14.00,2014-03-21 17:37:00,
2014-03-21 18:42:00,56.1,53.2,30.05,SSW,213,7.0,13.0,90,0.00,,---,0.00,VWS V14.00,2014-03-21 17:42:00,
2014-03-21 18:47:00,56.0,53.1,30.04,South,171,7.0,17.0,90,0.00,,---,0.00,VWS V14.00,2014-03-21 17:47:00,
2014-03-21 18:52:00,56.0,53.4,30.04,South,169,10.0,14.0,91,0.00,,---,0.00,VWS V14.00,2014-03-21 17:52:00,
2014-03-21 18:58:00,55.9,53.3,30.04,SSW,203,6.0,19.0,91,0.00,,---,0.00,VWS V14.00,2014-03-21 17:58:00,
2014-03-21 19:03:00,55.9,53.3,30.04,SW,222,4.0,17.0,91,0.00,,---,0.00,VWS V14.00,2014-03-21 18:03:00,
2014-03-21 19:07:00,55.9,53.3,30.05,SSW,200,7.0,17.0,91,0.00,,---,0.00,VWS V14.00,2014-03-21 18:07:00,
2014-03-21 19:12:00,55.9,53.3,30.04,SSW,199,7.0,14.0,91,0.00,,---,0.00,VWS V14.00,2014-03-21 18:12:00,
2014-03-21 19:17:00,55.8,53.2,30.05,South,187,11.0,13.0,91,0.00,,---,0.00,VWS V14.00,2014-03-21 18:17:00,
2014-03-21 19:23:00,55.7,53.1,30.04,South,186,10.0,11.0,91,0.00,,---,0.00,VWS V14.00,2014-03-21 18:23:00,
2014-03-21 19:27:00,55.6,53.0,30.04,SSW,201,9.0,11.0,91,0.00,,---,0.00,VWS V14.00,2014-03-21 18:27:00,
2014-03-21 19:32:00,55.6,53.3,30.04,South,183,7.0,13.0,92,0.00,,---,0.00,VWS V14.00,2014-03-21 18:32:00,
2014-03-21 19:37:00,55.7,53.4,30.05,SSW,213,5.0,16.0,92,0.00,,---,0.00,VWS V14.00,2014-03-21 18:37:00,
2014-03-21 19:43:00,55.7,53.1,30.05,South,180,9.0,15.0,91,0.00,,---,0.00,VWS V14.00,2014-03-21 18:43:00,
2014-03-21 19:48:00,55.9,53.3,30.05,SSW,200,6.0,14.0,91,0.00,,---,0.00,VWS V14.00,2014-03-21 18:48:00,
2014-03-21 19:53:00,55.9,53.6,30.05,SW,223,6.0,16.0,92,0.00,,---,0.00,VWS V14.00,2014-03-21 18:53:00,
2014-03-21 19:57:00,55.9,53.6,30.04,South,187,13.0,16.0,92,0.00,,---,0.00,VWS V14.00,2014-03-21 18:57:00,
2014-03-21 20:03:00,55.9,53.6,30.05,South,184,8.0,18.0,92,0.00,,---,0.00,VWS V14.00,2014-03-21 19:03:00,
2014-03-21 20:08:00,56.0,53.7,30.05,SSW,197,5.0,15.0,92,0.00,,---,0.00,VWS V14.00,2014-03-21 19:08:00,
2014-03-21 20:12:00,56.0,53.7,30.04,SSW,198,10.0,18.0,92,0.00,,---,0.00,VWS V14.00,2014-03-21 19:12:00,
2014-03-21 20:17:00,56.0,54.0,30.04,SSW,206,9.0,22.0,93,0.00,,---,0.00,VWS V14.00,2014-03-21 19:17:00,
2014-03-21 20:22:00,56.0,54.0,30.04,SSW,209,8.0,21.0,93,0.00,,---,0.00,VWS V14.00,2014-03-21 19:22:00,
2014-03-21 20:28:00,56.0,54.0,30.04,South,189,16.0,20.0,93,0.00,,---,0.00,VWS V14.00,2014-03-21 19:28:00,
2014-03-21 20:33:00,56.0,54.0,30.04,SSW,202,16.0,20.0,93,0.00,,---,0.00,VWS V14.00,2014-03-21 19:33:00,
2014-03-21 20:37:00,56.0,54.0,30.04,SSW,202,10.0,17.0,93,0.00,,---,0.00,VWS V14.00,2014-03-21 19:37:00,
2014-03-21 20:43:00,55.9,53.9,30.04,South,189,13.0,21.0,93,0.00,,---,0.00,VWS V14.00,2014-03-21 19:43:00,
2014-03-21 20:48:00,55.9,53.9,30.04,South,188,11.0,19.0,93,0.00,,---,0.00,VWS V14.00,2014-03-21 19:48:00,
2014-03-21 20:52:00,56.0,53.7,30.04,South,182,10.0,18.0,92,0.00,,---,0.00,VWS V14.00,2014-03-21 19:52:00,
2014-03-21 20:57:00,55.9,53.6,30.04,SSW,192,8.0,20.0,92,0.00,,---,0.00,VWS V14.00,2014-03-21 19:57:00,
2014-03-21 21:03:00,55.9,53.6,30.04,South,186,9.0,19.0,92,0.00,,---,0.00,VWS V14.00,2014-03-21 20:03:00,
2014-03-21 21:08:00,56.0,53.7,30.04,South,173,13.0,18.0,92,0.00,,---,0.00,VWS V14.00,2014-03-21 20:08:00,
2014-03-21 21:13:00,55.9,53.3,30.04,South,190,15.0,19.0,91,0.00,,---,0.00,VWS V14.00,2014-03-21 20:13:00,
2014-03-21 21:18:00,56.0,53.4,30.04,South,178,14.0,20.0,91,0.00,,---,0.00,VWS V14.00,2014-03-21 20:18:00,
2014-03-21 21:22:00,56.0,53.1,30.04,SSE,167,7.0,19.0,90,0.00,,---,0.00,VWS V14.00,2014-03-21 20:22:00,
2014-03-21 21:28:00,56.0,52.8,30.04,SSW,202,7.0,23.0,89,0.00,,---,0.00,VWS V14.00,2014-03-21 20:28:00,
2014-03-21 21:32:00,56.0,52.8,30.04,SSW,204,12.0,20.0,89,0.00,,---,0.00,VWS V14.00,2014-03-21 20:32:00,
2014-03-21 21:38:00,55.9,52.4,30.04,SSW,192,12.0,18.0,88,0.00,,---,0.00,VWS V14.00,2014-03-21 20:38:00,
2014-03-21 21:43:00,55.9,52.4,30.04,South,177,11.0,17.0,88,0.00,,---,0.00,VWS V14.00,2014-03-21 20:43:00,
2014-03-21 21:48:00,55.9,52.7,30.04,South,190,10.0,20.0,89,0.00,,---,0.00,VWS V14.00,2014-03-21 20:48:00,
2014-03-21 21:53:00,55.9,52.7,30.04,SSW,210,13.0,19.0,89,0.00,,---,0.00,VWS V14.00,2014-03-21 20:53:00,
2014-03-21 21:58:00,55.8,52.6,30.04,SSW,198,8.0,14.0,89,0.00,,---,0.00,VWS V14.00,2014-03-21 20:58:00,
2014-03-21 22:03:00,55.8,52.9,30.04,SSW,213,7.0,17.0,90,0.00,,---,0.00,VWS V14.00,2014-03-21 21:03:00,
2014-03-21 22:07:00,55.8,52.9,30.04,South,191,6.0,18.0,90,0.00,,---,0.00,VWS V14.00,2014-03-21 21:07:00,
2014-03-21 22:13:00,55.8,52.9,30.04,SSW,198,12.0,19.0,90,0.00,,---,0.00,VWS V14.00,2014-03-21 21:13:00,
2014-03-21 22:17:00,55.8,52.9,30.04,South,169,10.0,18.0,90,0.00,,---,0.00,VWS V14.00,2014-03-21 21:17:00,
2014-03-21 22:22:00,55.8,52.9,30.04,SSE,165,11.0,14.0,90,0.00,,---,0.00,VWS V14.00,2014-03-21 21:22:00,
2014-03-21 22:28:00,55.8,53.2,30.04,SW,214,4.0,17.0,91,0.00,,---,0.00,VWS V14.00,2014-03-21 21:28:00,
2014-03-21 22:33:00,55.8,53.2,30.04,South,183,6.0,17.0,91,0.00,,---,0.00,VWS V14.00,2014-03-21 21:33:00,
2014-03-21 22:38:00,55.8,53.2,30.03,SSW,204,7.0,14.0,91,0.00,,---,0.00,VWS V14.00,2014-03-21 21:38:00,
2014-03-21 22:43:00,55.8,53.2,30.03,SSW,196,6.0,18.0,91,0.00,,---,0.00,VWS V14.00,2014-03-21 21:43:00,
2014-03-21 22:47:00,55.9,53.3,30.03,SSW,202,9.0,17.0,91,0.00,,---,0.00,VWS V14.00,2014-03-21 21:47:00,
2014-03-21 22:52:00,56.0,53.4,30.03,South,188,10.0,20.0,91,0.00,,---,0.00,VWS V14.00,2014-03-21 21:52:00,
2014-03-21 22:58:00,56.0,53.7,30.03,South,188,7.0,21.0,92,0.00,,---,0.00,VWS V14.00,2014-03-21 21:58:00,
2014-03-21 23:03:00,56.0,53.7,30.03,South,178,17.0,18.0,92,0.00,,---,0.00,VWS V14.00,2014-03-21 22:03:00,
2014-03-21 23:08:00,56.0,53.7,30.03,SSW,209,9.0,21.0,92,0.00,,---,0.00,VWS V14.00,2014-03-21 22:08:00,
2014-03-21 23:13:00,56.0,53.7,30.03,South,178,7.0,21.0,92,0.00,,---,0.00,VWS V14.00,2014-03-21 22:13:00,
2014-03-21 23:18:00,56.1,53.8,30.03,South,171,11.0,23.0,92,0.00,,---,0.00,VWS V14.00,2014-03-21 22:18:00,
2014-03-21 23:22:00,56.1,53.8,30.03,South,188,12.0,22.0,92,0.00,,---,0.00,VWS V14.00,2014-03-21 22:22:00,
2014-03-21 23:27:00,56.2,53.9,30.03,SSW,192,11.0,18.0,92,0.00,,---,0.00,VWS V14.00,2014-03-21 22:27:00,
2014-03-21 23:32:00,56.2,53.9,30.03,SSW,194,4.0,21.0,92,0.00,,---,0.00,VWS V14.00,2014-03-21 22:32:00,
2014-03-21 23:38:00,56.3,54.0,30.03,SSW,202,10.0,17.0,92,0.00,,---,0.00,VWS V14.00,2014-03-21 22:38:00,
2014-03-21 23:42:00,56.2,53.9,30.02,South,182,12.0,18.0,92,0.00,,---,0.00,VWS V14.00,2014-03-21 22:42:00,
2014-03-21 23:48:00,56.2,54.2,30.02,South,171,7.0,22.0,93,0.00,,---,0.00,VWS V14.00,2014-03-21 22:48:00,
2014-03-21 23:52:00,56.2,54.2,30.02,SSW,200,15.0,19.0,93,0.00,,---,0.00,VWS V14.00,2014-03-21 22:52:00,
2014-03-21 23:58:00,56.1,54.1,30.01,South,186,12.0,20.0,93,0.00,,---,0.00,VWS V14.00,2014-03-21 22:58:00,